Terminal Aerodrome Forecast
Issued by NWS

Home | Current Version | Previous Version | Text Only | Print | Product List | Glossary Off
Versions: 1 2 3 4 5 6 7 8 9 10 11 12 13 14 15 16 17

000
FTUS43 KGRB 281125
TAFRHI
TAF
KRHI 281125Z 2812/2912 08010KT P6SM VCSH SCT060 OVC080
     FM281500 06009G17KT P6SM VCSH SCT050 OVC070
     FM290000 06004KT P6SM SCT050 OVC090
     FM290500 02003KT P6SM SCT090 BKN120=

USA.gov is the U.S. government's official web portal to all federal, state and local government web resources and services.